Highest pressure

Not for real navigation. The accuracy of this data is not assured See disclaimer for more information



ICAO NAME COUNTRY WIND Kt GUST Kt VIS m TEMP/DEW C BARO METAR
UARR Uralsk Kazakhstan 1 0 4500 -7/-8 30.71 UARR 190630Z VRB01KT 4500 BR BKN007 OVC016 M07/M08 Q1040 R04/720250 NOSIG RMK QFE776/1035
UWLW Ulyanovsk Russia 2 0 8000 -14/-16 30.71 UWLW 190600Z 06002KT 8000 -SN BKN006 M14/M16 Q1040 R02/820552 NOSIG RMK QFE773
UWWW Samara Russia 0 0 5000 -9/-11 30.68 UWWW 190630Z 00000KT 5000 BR OVC006 M09/M11 Q1039 R15/310142 NOSIG RMK QFE767/1023
UWKS 0 0 3400 -12/-13 30.68 UWKS 190630Z 00000KT 3400 -SN BR OVC003 M12/M13 Q1039 R06/920254 TEMPO 1500 SN BR OVC002 RMK QFE764
UUDL 1 0 9999 -12/-13 30.68 UUDL 190630Z 14001KT 9999 -SN OVC034 M12/M13 Q1039 R23/490538 NOSIG RMK QFE770

Show more